Strona główna
METAR-TAF:

METAR-TAF

Lotnisko :

Port lotniczy Wagadugu

Wagadugu, Burkina Faso

Szerokość geograficzna: 12-21N, Długość geograficzna: 001-31W, wysokość: 316 m

METAR: brakujący

czas: 16:05 (16:05 UTC)

Prognoza

Raport powstał 5 godziny i 5 minut temu, godzina 11:00 UTC
Prognoza ważna od 23 godzina 12 UTC do 24 godzina 18 UTC
Wiatr 8 kt z kierunków zmiennych
Widzialność 10 km lub więcej
Mało chmury na wysokości 2000 ft
Prawdopodobieństwo 30% :
Przejściowo
od 23 godzina 14 UTC do 23 godzina 24 UTC
Widzialność: 4000 m
Rozproszone chmury na wysokości 2000 ft
Mało chmury na wysokości 3300 ft, Cumulonimbus.
burza, deszcz

TAF: DFFD 231100Z 2312/2418 VRB08KT 9999 FEW020 PROB30 TEMPO 2314/2324 4000 TSRA SCT020 FEW033CB

Obserwacja i prognoza pogody dla ponad 4000 lotnisk (raport METAR i TAF).

Dostępne stacje oznaczono żółtymi i czerwonymi punktami na mapie.

Najedź kursorem aby zobaczyć nazwę stacji.

Kliknij aby zobaczyć obserwacje i prognozy pogody.

Aby zmienić mapę: kliknij na zielony przycisk z czarnym krzyżykiem, aby powiększyć; na zielony przycisk z myślnikiem, aby pomniejszyć; na zielone strzałki, aby przejść do map sąsiednich.


METAR-TAF: